sensor_id;sensor_type;location;lat;lon;timestamp;P1;durP1;ratioP1;P2;durP2;ratioP2
34920;SDS011;21128;50.016;20.002;2022-12-22T00:02:21;142.30;;;81.80;;
34920;SDS011;21128;50.016;20.002;2022-12-22T00:05:26;139.13;;;78.23;;
34920;SDS011;21128;50.016;20.002;2022-12-22T00:08:30;159.07;;;86.07;;
34920;SDS011;21128;50.016;20.002;2022-12-22T00:11:42;152.43;;;83.83;;
34920;SDS011;21128;50.016;20.002;2022-12-22T00:14:49;143.23;;;81.60;;
34920;SDS011;21128;50.016;20.002;2022-12-22T00:18:02;150.80;;;81.50;;
34920;SDS011;21128;50.016;20.002;2022-12-22T00:21:10;145.90;;;81.60;;
34920;SDS011;21128;50.016;20.002;2022-12-22T00:24:16;144.13;;;80.47;;
34920;SDS011;21128;50.016;20.002;2022-12-22T00:27:25;146.63;;;81.97;;
34920;SDS011;21128;50.016;20.002;2022-12-22T00:30:38;138.20;;;80.07;;
34920;SDS011;21128;50.016;20.002;2022-12-22T00:33:51;142.53;;;78.63;;
34920;SDS011;21128;50.016;20.002;2022-12-22T00:37:03;148.23;;;81.37;;
34920;SDS011;21128;50.016;20.002;2022-12-22T00:40:18;136.27;;;76.17;;
34920;SDS011;21128;50.016;20.002;2022-12-22T00:43:33;131.10;;;74.17;;
34920;SDS011;21128;50.016;20.002;2022-12-22T00:46:38;132.43;;;73.60;;
34920;SDS011;21128;50.016;20.002;2022-12-22T00:49:45;128.30;;;72.23;;
34920;SDS011;21128;50.016;20.002;2022-12-22T00:52:52;129.03;;;71.00;;
34920;SDS011;21128;50.016;20.002;2022-12-22T00:55:58;118.47;;;68.40;;
34920;SDS011;21128;50.016;20.002;2022-12-22T00:59:03;121.83;;;67.50;;
34920;SDS011;21128;50.016;20.002;2022-12-22T01:02:08;126.43;;;70.80;;
34920;SDS011;21128;50.016;20.002;2022-12-22T01:05:13;122.33;;;66.50;;
34920;SDS011;21128;50.016;20.002;2022-12-22T01:08:18;118.77;;;65.67;;
34920;SDS011;21128;50.016;20.002;2022-12-22T01:11:23;114.07;;;62.83;;
34920;SDS011;21128;50.016;20.002;2022-12-22T01:14:29;110.70;;;62.23;;
34920;SDS011;21128;50.016;20.002;2022-12-22T01:17:34;101.77;;;58.37;;
34920;SDS011;21128;50.016;20.002;2022-12-22T01:20:38;100.10;;;57.50;;
34920;SDS011;21128;50.016;20.002;2022-12-22T01:23:43;106.37;;;58.73;;
34920;SDS011;21128;50.016;20.002;2022-12-22T01:26:48;98.73;;;56.00;;
34920;SDS011;21128;50.016;20.002;2022-12-22T01:29:53;106.53;;;58.63;;
34920;SDS011;21128;50.016;20.002;2022-12-22T01:33:06;99.93;;;56.40;;
34920;SDS011;21128;50.016;20.002;2022-12-22T01:36:23;102.80;;;56.25;;
34920;SDS011;21128;50.016;20.002;2022-12-22T01:39:36;105.05;;;57.50;;
34920;SDS011;21128;50.016;20.002;2022-12-22T01:42:47;98.75;;;56.40;;
34920;SDS011;21128;50.016;20.002;2022-12-22T01:45:52;103.60;;;57.93;;
34920;SDS011;21128;50.016;20.002;2022-12-22T01:48:57;106.27;;;59.10;;
34920;SDS011;21128;50.016;20.002;2022-12-22T01:52:02;103.33;;;57.57;;
34920;SDS011;21128;50.016;20.002;2022-12-22T01:55:10;107.83;;;59.40;;
34920;SDS011;21128;50.016;20.002;2022-12-22T01:58:31;104.80;;;58.00;;
34920;SDS011;21128;50.016;20.002;2022-12-22T02:01:40;108.23;;;61.53;;
34920;SDS011;21128;50.016;20.002;2022-12-22T02:04:46;107.90;;;59.45;;
34920;SDS011;21128;50.016;20.002;2022-12-22T02:11:38;113.37;;;61.67;;
34920;SDS011;21128;50.016;20.002;2022-12-22T02:22:09;97.10;;;56.00;;
34920;SDS011;21128;50.016;20.002;2022-12-22T02:25:21;105.93;;;61.47;;
34920;SDS011;21128;50.016;20.002;2022-12-22T02:28:31;104.40;;;60.33;;
34920;SDS011;21128;50.016;20.002;2022-12-22T02:31:38;105.87;;;57.83;;
34920;SDS011;21128;50.016;20.002;2022-12-22T02:34:57;103.53;;;58.30;;
34920;SDS011;21128;50.016;20.002;2022-12-22T02:41:17;99.97;;;57.93;;
34920;SDS011;21128;50.016;20.002;2022-12-22T02:44:41;98.13;;;57.43;;
34920;SDS011;21128;50.016;20.002;2022-12-22T02:51:18;108.53;;;60.37;;
34920;SDS011;21128;50.016;20.002;2022-12-22T02:54:27;101.87;;;58.03;;
34920;SDS011;21128;50.016;20.002;2022-12-22T02:57:34;110.67;;;59.60;;
34920;SDS011;21128;50.016;20.002;2022-12-22T03:00:39;114.67;;;61.73;;
34920;SDS011;21128;50.016;20.002;2022-12-22T03:03:44;110.10;;;60.97;;
34920;SDS011;21128;50.016;20.002;2022-12-22T03:06:49;105.70;;;59.73;;
34920;SDS011;21128;50.016;20.002;2022-12-22T03:09:54;107.30;;;59.23;;
34920;SDS011;21128;50.016;20.002;2022-12-22T03:12:59;110.53;;;60.60;;
34920;SDS011;21128;50.016;20.002;2022-12-22T03:16:04;112.43;;;60.57;;
34920;SDS011;21128;50.016;20.002;2022-12-22T03:19:09;111.93;;;60.67;;
34920;SDS011;21128;50.016;20.002;2022-12-22T03:22:16;105.27;;;61.50;;
34920;SDS011;21128;50.016;20.002;2022-12-22T03:25:21;103.90;;;60.50;;
34920;SDS011;21128;50.016;20.002;2022-12-22T03:28:26;102.93;;;57.30;;
34920;SDS011;21128;50.016;20.002;2022-12-22T03:31:13;102.27;;;56.43;;
34920;SDS011;21128;50.016;20.002;2022-12-22T03:34:06;100.83;;;57.53;;
34920;SDS011;21128;50.016;20.002;2022-12-22T03:37:05;102.23;;;56.97;;
34920;SDS011;21128;50.016;20.002;2022-12-22T03:39:51;98.23;;;56.60;;
34920;SDS011;21128;50.016;20.002;2022-12-22T03:42:44;97.47;;;54.50;;
34920;SDS011;21128;50.016;20.002;2022-12-22T03:45:54;105.97;;;59.30;;
34920;SDS011;21128;50.016;20.002;2022-12-22T03:49:00;114.97;;;60.13;;
34920;SDS011;21128;50.016;20.002;2022-12-22T03:51:57;117.30;;;62.43;;
34920;SDS011;21128;50.016;20.002;2022-12-22T03:54:43;103.03;;;60.63;;
34920;SDS011;21128;50.016;20.002;2022-12-22T03:57:28;104.47;;;58.60;;
34920;SDS011;21128;50.016;20.002;2022-12-22T04:00:15;108.57;;;59.67;;
34920;SDS011;21128;50.016;20.002;2022-12-22T04:03:10;104.70;;;60.47;;
34920;SDS011;21128;50.016;20.002;2022-12-22T04:05:56;101.10;;;61.57;;
34920;SDS011;21128;50.016;20.002;2022-12-22T04:08:41;108.00;;;59.47;;
34920;SDS011;21128;50.016;20.002;2022-12-22T04:11:28;103.43;;;57.73;;
34920;SDS011;21128;50.016;20.002;2022-12-22T04:14:34;97.43;;;53.67;;
34920;SDS011;21128;50.016;20.002;2022-12-22T04:17:27;92.43;;;52.63;;
34920;SDS011;21128;50.016;20.002;2022-12-22T04:20:12;87.37;;;49.47;;
34920;SDS011;21128;50.016;20.002;2022-12-22T04:22:59;81.37;;;47.50;;
34920;SDS011;21128;50.016;20.002;2022-12-22T04:25:45;78.43;;;46.17;;
34920;SDS011;21128;50.016;20.002;2022-12-22T04:28:30;79.70;;;47.40;;
34920;SDS011;21128;50.016;20.002;2022-12-22T04:31:17;81.50;;;48.13;;
34920;SDS011;21128;50.016;20.002;2022-12-22T04:34:16;88.25;;;52.30;;
34920;SDS011;21128;50.016;20.002;2022-12-22T04:37:08;75.30;;;46.57;;
34920;SDS011;21128;50.016;20.002;2022-12-22T04:39:55;83.13;;;46.37;;
34920;SDS011;21128;50.016;20.002;2022-12-22T04:42:41;74.00;;;46.33;;
34920;SDS011;21128;50.016;20.002;2022-12-22T04:45:27;80.33;;;46.50;;
34920;SDS011;21128;50.016;20.002;2022-12-22T04:48:20;64.50;;;37.37;;
34920;SDS011;21128;50.016;20.002;2022-12-22T04:51:06;78.80;;;44.13;;
34920;SDS011;21128;50.016;20.002;2022-12-22T04:53:53;82.20;;;47.13;;
34920;SDS011;21128;50.016;20.002;2022-12-22T04:56:39;81.57;;;48.37;;
34920;SDS011;21128;50.016;20.002;2022-12-22T04:59:25;85.10;;;47.53;;
34920;SDS011;21128;50.016;20.002;2022-12-22T05:02:11;80.77;;;47.27;;
34920;SDS011;21128;50.016;20.002;2022-12-22T05:05:00;83.27;;;49.47;;
34920;SDS011;21128;50.016;20.002;2022-12-22T05:07:46;80.90;;;48.63;;
34920;SDS011;21128;50.016;20.002;2022-12-22T05:10:38;81.63;;;47.53;;
34920;SDS011;21128;50.016;20.002;2022-12-22T05:13:23;81.57;;;46.97;;
34920;SDS011;21128;50.016;20.002;2022-12-22T05:16:10;81.33;;;46.90;;
34920;SDS011;21128;50.016;20.002;2022-12-22T05:18:58;84.93;;;48.27;;
34920;SDS011;21128;50.016;20.002;2022-12-22T05:21:50;77.05;;;45.70;;
34920;SDS011;21128;50.016;20.002;2022-12-22T05:24:36;76.80;;;46.07;;
34920;SDS011;21128;50.016;20.002;2022-12-22T05:27:22;76.87;;;46.47;;
34920;SDS011;21128;50.016;20.002;2022-12-22T05:30:08;82.40;;;46.87;;
34920;SDS011;21128;50.016;20.002;2022-12-22T05:32:55;82.57;;;48.63;;
34920;SDS011;21128;50.016;20.002;2022-12-22T05:35:54;79.43;;;45.47;;
34920;SDS011;21128;50.016;20.002;2022-12-22T05:38:40;83.13;;;48.33;;
34920;SDS011;21128;50.016;20.002;2022-12-22T05:41:33;82.50;;;46.80;;
34920;SDS011;21128;50.016;20.002;2022-12-22T05:44:19;86.30;;;47.70;;
34920;SDS011;21128;50.016;20.002;2022-12-22T05:47:05;83.13;;;48.17;;
34920;SDS011;21128;50.016;20.002;2022-12-22T05:49:50;94.33;;;51.03;;
34920;SDS011;21128;50.016;20.002;2022-12-22T05:52:36;97.93;;;49.57;;
34920;SDS011;21128;50.016;20.002;2022-12-22T05:55:22;97.80;;;49.27;;
34920;SDS011;21128;50.016;20.002;2022-12-22T05:58:08;95.67;;;49.50;;
34920;SDS011;21128;50.016;20.002;2022-12-22T06:00:55;93.33;;;49.20;;
34920;SDS011;21128;50.016;20.002;2022-12-22T06:03:49;98.77;;;48.60;;
34920;SDS011;21128;50.016;20.002;2022-12-22T06:06:35;64.47;;;36.37;;
34920;SDS011;21128;50.016;20.002;2022-12-22T06:09:20;91.70;;;50.37;;
34920;SDS011;21128;50.016;20.002;2022-12-22T06:12:12;82.50;;;47.67;;
34920;SDS011;21128;50.016;20.002;2022-12-22T06:14:59;76.97;;;46.13;;
34920;SDS011;21128;50.016;20.002;2022-12-22T06:17:44;79.33;;;45.53;;
34920;SDS011;21128;50.016;20.002;2022-12-22T06:20:30;86.77;;;49.77;;
34920;SDS011;21128;50.016;20.002;2022-12-22T06:23:16;81.23;;;45.60;;
34920;SDS011;21128;50.016;20.002;2022-12-22T06:26:02;86.83;;;49.63;;
34920;SDS011;21128;50.016;20.002;2022-12-22T06:28:48;90.73;;;48.97;;
34920;SDS011;21128;50.016;20.002;2022-12-22T06:31:34;90.60;;;48.27;;
34920;SDS011;21128;50.016;20.002;2022-12-22T06:34:33;84.75;;;48.00;;
34920;SDS011;21128;50.016;20.002;2022-12-22T06:37:19;83.90;;;47.07;;
34920;SDS011;21128;50.016;20.002;2022-12-22T06:40:17;88.50;;;48.37;;
34920;SDS011;21128;50.016;20.002;2022-12-22T06:43:04;91.47;;;49.10;;
34920;SDS011;21128;50.016;20.002;2022-12-22T06:45:53;111.25;;;51.20;;
34920;SDS011;21128;50.016;20.002;2022-12-22T06:48:39;102.45;;;50.40;;
34920;SDS011;21128;50.016;20.002;2022-12-22T06:51:24;90.03;;;51.27;;
34920;SDS011;21128;50.016;20.002;2022-12-22T06:54:17;96.82;;;49.70;;
34920;SDS011;21128;50.016;20.002;2022-12-22T06:57:03;103.93;;;49.00;;
34920;SDS011;21128;50.016;20.002;2022-12-22T06:59:49;97.90;;;50.70;;
34920;SDS011;21128;50.016;20.002;2022-12-22T07:02:34;93.10;;;49.73;;
34920;SDS011;21128;50.016;20.002;2022-12-22T07:05:20;90.37;;;50.60;;
34920;SDS011;21128;50.016;20.002;2022-12-22T07:08:08;91.50;;;49.50;;
34920;SDS011;21128;50.016;20.002;2022-12-22T07:10:53;87.30;;;48.80;;
34920;SDS011;21128;50.016;20.002;2022-12-22T07:13:42;83.20;;;48.47;;
34920;SDS011;21128;50.016;20.002;2022-12-22T07:16:28;82.00;;;45.80;;
34920;SDS011;21128;50.016;20.002;2022-12-22T07:19:13;83.35;;;47.40;;
34920;SDS011;21128;50.016;20.002;2022-12-22T07:21:59;77.93;;;47.37;;
34920;SDS011;21128;50.016;20.002;2022-12-22T07:24:45;77.13;;;45.63;;
34920;SDS011;21128;50.016;20.002;2022-12-22T07:27:31;83.40;;;48.87;;
34920;SDS011;21128;50.016;20.002;2022-12-22T07:30:16;81.57;;;45.17;;
34920;SDS011;21128;50.016;20.002;2022-12-22T07:33:02;81.43;;;46.27;;
34920;SDS011;21128;50.016;20.002;2022-12-22T07:35:59;80.65;;;46.92;;
34920;SDS011;21128;50.016;20.002;2022-12-22T07:39:01;76.65;;;45.55;;
34920;SDS011;21128;50.016;20.002;2022-12-22T07:41:54;77.20;;;44.53;;
34920;SDS011;21128;50.016;20.002;2022-12-22T07:44:59;82.97;;;45.70;;
34920;SDS011;21128;50.016;20.002;2022-12-22T07:47:45;78.00;;;45.33;;
34920;SDS011;21128;50.016;20.002;2022-12-22T07:50:37;70.37;;;42.33;;
34920;SDS011;21128;50.016;20.002;2022-12-22T07:53:23;84.10;;;46.33;;
34920;SDS011;21128;50.016;20.002;2022-12-22T07:56:08;83.00;;;44.53;;
34920;SDS011;21128;50.016;20.002;2022-12-22T07:58:54;76.30;;;43.17;;
34920;SDS011;21128;50.016;20.002;2022-12-22T08:01:40;76.03;;;44.57;;
34920;SDS011;21128;50.016;20.002;2022-12-22T08:04:25;86.07;;;46.77;;
34920;SDS011;21128;50.016;20.002;2022-12-22T08:07:11;74.43;;;43.30;;
34920;SDS011;21128;50.016;20.002;2022-12-22T08:09:57;75.23;;;44.30;;
34920;SDS011;21128;50.016;20.002;2022-12-22T08:12:44;80.30;;;46.77;;
34920;SDS011;21128;50.016;20.002;2022-12-22T08:15:30;79.23;;;46.23;;
34920;SDS011;21128;50.016;20.002;2022-12-22T08:18:15;77.70;;;45.83;;
34920;SDS011;21128;50.016;20.002;2022-12-22T08:21:02;82.27;;;47.90;;
34920;SDS011;21128;50.016;20.002;2022-12-22T08:23:48;82.07;;;46.20;;
34920;SDS011;21128;50.016;20.002;2022-12-22T08:26:39;81.93;;;47.20;;
34920;SDS011;21128;50.016;20.002;2022-12-22T08:29:30;77.23;;;47.00;;
34920;SDS011;21128;50.016;20.002;2022-12-22T08:32:19;83.40;;;47.20;;
34920;SDS011;21128;50.016;20.002;2022-12-22T08:35:11;83.07;;;46.33;;
34920;SDS011;21128;50.016;20.002;2022-12-22T08:38:03;76.83;;;44.77;;
34920;SDS011;21128;50.016;20.002;2022-12-22T08:40:50;84.80;;;46.35;;
34920;SDS011;21128;50.016;20.002;2022-12-22T08:43:42;69.90;;;42.77;;
34920;SDS011;21128;50.016;20.002;2022-12-22T08:46:28;76.70;;;42.13;;
34920;SDS011;21128;50.016;20.002;2022-12-22T08:49:13;77.60;;;43.07;;
34920;SDS011;21128;50.016;20.002;2022-12-22T08:52:05;72.50;;;41.60;;
34920;SDS011;21128;50.016;20.002;2022-12-22T08:54:51;71.67;;;42.27;;
34920;SDS011;21128;50.016;20.002;2022-12-22T08:57:36;83.20;;;44.53;;
34920;SDS011;21128;50.016;20.002;2022-12-22T09:00:22;79.10;;;44.73;;
34920;SDS011;21128;50.016;20.002;2022-12-22T09:03:08;74.83;;;44.10;;
34920;SDS011;21128;50.016;20.002;2022-12-22T09:06:01;70.15;;;43.05;;
34920;SDS011;21128;50.016;20.002;2022-12-22T09:08:47;75.25;;;41.85;;
34920;SDS011;21128;50.016;20.002;2022-12-22T09:11:37;75.43;;;41.93;;
34920;SDS011;21128;50.016;20.002;2022-12-22T09:14:24;73.07;;;40.93;;
34920;SDS011;21128;50.016;20.002;2022-12-22T09:17:10;67.43;;;39.97;;
34920;SDS011;21128;50.016;20.002;2022-12-22T09:19:56;74.83;;;42.43;;
34920;SDS011;21128;50.016;20.002;2022-12-22T09:22:41;77.60;;;45.07;;
34920;SDS011;21128;50.016;20.002;2022-12-22T09:25:27;75.43;;;44.47;;
34920;SDS011;21128;50.016;20.002;2022-12-22T09:28:12;74.75;;;43.90;;
34920;SDS011;21128;50.016;20.002;2022-12-22T09:30:58;75.40;;;45.97;;
34920;SDS011;21128;50.016;20.002;2022-12-22T09:33:44;77.10;;;44.55;;
34920;SDS011;21128;50.016;20.002;2022-12-22T09:36:38;59.23;;;33.33;;
34920;SDS011;21128;50.016;20.002;2022-12-22T09:39:24;79.15;;;46.30;;
34920;SDS011;21128;50.016;20.002;2022-12-22T09:42:11;77.53;;;45.90;;
34920;SDS011;21128;50.016;20.002;2022-12-22T09:45:10;71.53;;;43.70;;
34920;SDS011;21128;50.016;20.002;2022-12-22T09:48:04;72.47;;;44.03;;
34920;SDS011;21128;50.016;20.002;2022-12-22T09:50:55;73.80;;;44.85;;
34920;SDS011;21128;50.016;20.002;2022-12-22T09:53:41;72.70;;;42.27;;
34920;SDS011;21128;50.016;20.002;2022-12-22T09:56:32;73.83;;;43.17;;
34920;SDS011;21128;50.016;20.002;2022-12-22T09:59:18;73.50;;;40.70;;
34920;SDS011;21128;50.016;20.002;2022-12-22T10:02:55;69.63;;;41.07;;
34920;SDS011;21128;50.016;20.002;2022-12-22T10:05:42;80.73;;;41.73;;
34920;SDS011;21128;50.016;20.002;2022-12-22T10:08:42;75.80;;;40.93;;
34920;SDS011;21128;50.016;20.002;2022-12-22T10:11:27;76.05;;;41.55;;
34920;SDS011;21128;50.016;20.002;2022-12-22T10:14:13;71.10;;;41.73;;
34920;SDS011;21128;50.016;20.002;2022-12-22T10:23:03;79.13;;;43.70;;
34920;SDS011;21128;50.016;20.002;2022-12-22T10:26:10;80.87;;;44.97;;
34920;SDS011;21128;50.016;20.002;2022-12-22T10:29:05;82.00;;;44.17;;
34920;SDS011;21128;50.016;20.002;2022-12-22T10:32:02;75.70;;;43.73;;
34920;SDS011;21128;50.016;20.002;2022-12-22T10:35:02;75.07;;;43.83;;
34920;SDS011;21128;50.016;20.002;2022-12-22T10:37:50;78.40;;;43.17;;
34920;SDS011;21128;50.016;20.002;2022-12-22T10:40:40;75.93;;;43.23;;
34920;SDS011;21128;50.016;20.002;2022-12-22T10:43:29;79.07;;;45.83;;
34920;SDS011;21128;50.016;20.002;2022-12-22T10:46:19;82.93;;;47.17;;
34920;SDS011;21128;50.016;20.002;2022-12-22T10:52:26;78.90;;;45.73;;
34920;SDS011;21128;50.016;20.002;2022-12-22T10:55:15;84.90;;;45.15;;
34920;SDS011;21128;50.016;20.002;2022-12-22T11:01:02;75.47;;;45.83;;
34920;SDS011;21128;50.016;20.002;2022-12-22T11:03:48;85.67;;;48.07;;
34920;SDS011;21128;50.016;20.002;2022-12-22T11:06:34;91.93;;;48.27;;
34920;SDS011;21128;50.016;20.002;2022-12-22T11:09:26;88.30;;;49.47;;
34920;SDS011;21128;50.016;20.002;2022-12-22T11:12:36;99.97;;;50.40;;
34920;SDS011;21128;50.016;20.002;2022-12-22T11:24:26;103.93;;;54.37;;
34920;SDS011;21128;50.016;20.002;2022-12-22T11:33:52;115.10;;;51.83;;
34920;SDS011;21128;50.016;20.002;2022-12-22T11:37:03;108.83;;;50.63;;
34920;SDS011;21128;50.016;20.002;2022-12-22T11:40:01;115.63;;;52.73;;
34920;SDS011;21128;50.016;20.002;2022-12-22T11:43:08;125.90;;;57.27;;
34920;SDS011;21128;50.016;20.002;2022-12-22T11:49:03;120.87;;;57.30;;
34920;SDS011;21128;50.016;20.002;2022-12-22T12:07:47;102.27;;;50.63;;
34920;SDS011;21128;50.016;20.002;2022-12-22T12:10:46;107.20;;;52.27;;
34920;SDS011;21128;50.016;20.002;2022-12-22T12:13:48;110.27;;;52.23;;
34920;SDS011;21128;50.016;20.002;2022-12-22T12:16:39;117.60;;;53.77;;
34920;SDS011;21128;50.016;20.002;2022-12-22T12:22:53;95.20;;;50.30;;
34920;SDS011;21128;50.016;20.002;2022-12-22T12:32:09;92.10;;;49.20;;
34920;SDS011;21128;50.016;20.002;2022-12-22T12:44:53;92.83;;;52.00;;
34920;SDS011;21128;50.016;20.002;2022-12-22T12:47:39;95.17;;;50.53;;
34920;SDS011;21128;50.016;20.002;2022-12-22T12:50:29;88.50;;;48.35;;
34920;SDS011;21128;50.016;20.002;2022-12-22T12:53:19;91.97;;;50.30;;
34920;SDS011;21128;50.016;20.002;2022-12-22T12:56:12;94.60;;;53.20;;
34920;SDS011;21128;50.016;20.002;2022-12-22T12:58:58;100.80;;;53.77;;
34920;SDS011;21128;50.016;20.002;2022-12-22T13:01:56;95.53;;;60.03;;
34920;SDS011;21128;50.016;20.002;2022-12-22T13:04:59;107.30;;;64.53;;
34920;SDS011;21128;50.016;20.002;2022-12-22T13:16:30;102.63;;;63.27;;
34920;SDS011;21128;50.016;20.002;2022-12-22T13:19:19;107.20;;;62.50;;
34920;SDS011;21128;50.016;20.002;2022-12-22T13:22:08;110.33;;;65.80;;
34920;SDS011;21128;50.016;20.002;2022-12-22T13:25:01;109.10;;;65.90;;
34920;SDS011;21128;50.016;20.002;2022-12-22T13:27:48;108.87;;;65.93;;
34920;SDS011;21128;50.016;20.002;2022-12-22T13:30:35;105.77;;;68.03;;
34920;SDS011;21128;50.016;20.002;2022-12-22T13:33:23;116.17;;;69.23;;
34920;SDS011;21128;50.016;20.002;2022-12-22T13:36:17;119.90;;;69.40;;
34920;SDS011;21128;50.016;20.002;2022-12-22T13:39:11;112.70;;;66.10;;
34920;SDS011;21128;50.016;20.002;2022-12-22T13:42:05;112.97;;;62.73;;
34920;SDS011;21128;50.016;20.002;2022-12-22T13:44:52;104.90;;;62.43;;
34920;SDS011;21128;50.016;20.002;2022-12-22T13:47:40;92.23;;;50.10;;
34920;SDS011;21128;50.016;20.002;2022-12-22T13:50:27;83.93;;;49.27;;
34920;SDS011;21128;50.016;20.002;2022-12-22T13:53:22;98.80;;;59.33;;
34920;SDS011;21128;50.016;20.002;2022-12-22T13:56:19;105.40;;;60.43;;
34920;SDS011;21128;50.016;20.002;2022-12-22T14:02:16;107.33;;;62.50;;
34920;SDS011;21128;50.016;20.002;2022-12-22T14:07:56;114.03;;;63.97;;
34920;SDS011;21128;50.016;20.002;2022-12-22T14:10:49;105.70;;;64.40;;
34920;SDS011;21128;50.016;20.002;2022-12-22T14:13:37;106.37;;;63.60;;
34920;SDS011;21128;50.016;20.002;2022-12-22T14:16:24;107.13;;;62.37;;
34920;SDS011;21128;50.016;20.002;2022-12-22T14:19:11;106.03;;;62.03;;
34920;SDS011;21128;50.016;20.002;2022-12-22T14:25:00;112.30;;;64.70;;
34920;SDS011;21128;50.016;20.002;2022-12-22T14:27:56;119.77;;;67.20;;
34920;SDS011;21128;50.016;20.002;2022-12-22T14:30:44;125.80;;;70.00;;
34920;SDS011;21128;50.016;20.002;2022-12-22T14:33:33;122.17;;;71.17;;
34920;SDS011;21128;50.016;20.002;2022-12-22T14:36:26;122.70;;;71.47;;
34920;SDS011;21128;50.016;20.002;2022-12-22T14:39:25;112.20;;;67.75;;
34920;SDS011;21128;50.016;20.002;2022-12-22T14:42:21;113.60;;;68.23;;
34920;SDS011;21128;50.016;20.002;2022-12-22T14:45:14;114.13;;;68.67;;
34920;SDS011;21128;50.016;20.002;2022-12-22T14:48:00;119.05;;;71.45;;
34920;SDS011;21128;50.016;20.002;2022-12-22T14:50:47;119.23;;;69.20;;
34920;SDS011;21128;50.016;20.002;2022-12-22T14:53:52;109.63;;;68.93;;
34920;SDS011;21128;50.016;20.002;2022-12-22T14:56:47;122.77;;;70.83;;
34920;SDS011;21128;50.016;20.002;2022-12-22T14:59:55;115.93;;;70.63;;
34920;SDS011;21128;50.016;20.002;2022-12-22T15:02:47;72.93;;;44.33;;
34920;SDS011;21128;50.016;20.002;2022-12-22T15:05:37;89.80;;;53.53;;
34920;SDS011;21128;50.016;20.002;2022-12-22T15:08:39;49.10;;;30.00;;
34920;SDS011;21128;50.016;20.002;2022-12-22T15:11:28;31.70;;;19.32;;
34920;SDS011;21128;50.016;20.002;2022-12-22T15:14:23;35.37;;;17.70;;
34920;SDS011;21128;50.016;20.002;2022-12-22T15:17:21;26.80;;;14.00;;
34920;SDS011;21128;50.016;20.002;2022-12-22T15:20:20;22.35;;;12.25;;
34920;SDS011;21128;50.016;20.002;2022-12-22T15:23:10;26.65;;;12.10;;
34920;SDS011;21128;50.016;20.002;2022-12-22T15:25:58;20.20;;;9.97;;
34920;SDS011;21128;50.016;20.002;2022-12-22T15:28:44;16.47;;;10.23;;
34920;SDS011;21128;50.016;20.002;2022-12-22T15:31:29;17.23;;;8.90;;
34920;SDS011;21128;50.016;20.002;2022-12-22T15:34:21;15.33;;;8.23;;
34920;SDS011;21128;50.016;20.002;2022-12-22T15:37:16;17.27;;;8.30;;
34920;SDS011;21128;50.016;20.002;2022-12-22T15:40:02;13.43;;;7.97;;
34920;SDS011;21128;50.016;20.002;2022-12-22T15:42:48;12.27;;;7.30;;
34920;SDS011;21128;50.016;20.002;2022-12-22T15:45:35;12.47;;;7.17;;
34920;SDS011;21128;50.016;20.002;2022-12-22T15:48:32;11.47;;;7.00;;
34920;SDS011;21128;50.016;20.002;2022-12-22T15:51:21;10.90;;;6.97;;
34920;SDS011;21128;50.016;20.002;2022-12-22T15:54:12;15.67;;;8.23;;
34920;SDS011;21128;50.016;20.002;2022-12-22T15:56:59;13.83;;;8.87;;
34920;SDS011;21128;50.016;20.002;2022-12-22T15:59:45;18.07;;;8.47;;
34920;SDS011;21128;50.016;20.002;2022-12-22T16:02:31;13.40;;;7.95;;
34920;SDS011;21128;50.016;20.002;2022-12-22T16:05:23;11.33;;;7.77;;
34920;SDS011;21128;50.016;20.002;2022-12-22T16:08:16;13.17;;;8.13;;
34920;SDS011;21128;50.016;20.002;2022-12-22T16:11:07;11.17;;;7.43;;
34920;SDS011;21128;50.016;20.002;2022-12-22T16:13:53;14.57;;;7.70;;
34920;SDS011;21128;50.016;20.002;2022-12-22T16:16:39;11.23;;;7.17;;
34920;SDS011;21128;50.016;20.002;2022-12-22T16:19:32;12.95;;;7.80;;
34920;SDS011;21128;50.016;20.002;2022-12-22T16:22:18;12.67;;;7.53;;
34920;SDS011;21128;50.016;20.002;2022-12-22T16:25:10;12.70;;;7.60;;
34920;SDS011;21128;50.016;20.002;2022-12-22T16:28:00;13.27;;;8.10;;
34920;SDS011;21128;50.016;20.002;2022-12-22T16:30:47;17.30;;;9.70;;
34920;SDS011;21128;50.016;20.002;2022-12-22T16:33:33;14.53;;;7.73;;
34920;SDS011;21128;50.016;20.002;2022-12-22T16:36:39;13.53;;;7.27;;
34920;SDS011;21128;50.016;20.002;2022-12-22T16:39:24;12.67;;;6.50;;
34920;SDS011;21128;50.016;20.002;2022-12-22T16:42:13;14.93;;;6.97;;
34920;SDS011;21128;50.016;20.002;2022-12-22T16:45:03;17.23;;;7.13;;
34920;SDS011;21128;50.016;20.002;2022-12-22T16:47:51;14.00;;;6.53;;
34920;SDS011;21128;50.016;20.002;2022-12-22T16:50:37;10.70;;;5.93;;
34920;SDS011;21128;50.016;20.002;2022-12-22T16:53:24;13.37;;;6.90;;
34920;SDS011;21128;50.016;20.002;2022-12-22T16:56:12;10.20;;;6.13;;
34920;SDS011;21128;50.016;20.002;2022-12-22T16:59:08;10.80;;;5.45;;
34920;SDS011;21128;50.016;20.002;2022-12-22T17:01:54;13.10;;;5.93;;
34920;SDS011;21128;50.016;20.002;2022-12-22T17:04:42;11.00;;;6.40;;
34920;SDS011;21128;50.016;20.002;2022-12-22T17:07:28;11.83;;;5.97;;
34920;SDS011;21128;50.016;20.002;2022-12-22T17:10:17;9.60;;;5.07;;
34920;SDS011;21128;50.016;20.002;2022-12-22T17:13:04;9.47;;;4.73;;
34920;SDS011;21128;50.016;20.002;2022-12-22T17:15:50;11.15;;;4.75;;
34920;SDS011;21128;50.016;20.002;2022-12-22T17:18:44;9.67;;;5.10;;
34920;SDS011;21128;50.016;20.002;2022-12-22T17:21:30;8.28;;;4.53;;
34920;SDS011;21128;50.016;20.002;2022-12-22T17:24:16;10.77;;;5.37;;
34920;SDS011;21128;50.016;20.002;2022-12-22T17:27:05;7.17;;;4.70;;
34920;SDS011;21128;50.016;20.002;2022-12-22T17:29:50;9.70;;;5.10;;
34920;SDS011;21128;50.016;20.002;2022-12-22T17:32:37;9.57;;;5.00;;
34920;SDS011;21128;50.016;20.002;2022-12-22T17:35:43;9.30;;;5.10;;
34920;SDS011;21128;50.016;20.002;2022-12-22T17:38:30;10.37;;;5.13;;
34920;SDS011;21128;50.016;20.002;2022-12-22T17:41:16;8.67;;;4.80;;
34920;SDS011;21128;50.016;20.002;2022-12-22T17:44:02;12.50;;;5.10;;
34920;SDS011;21128;50.016;20.002;2022-12-22T17:46:54;13.55;;;5.40;;
34920;SDS011;21128;50.016;20.002;2022-12-22T17:49:46;8.37;;;4.80;;
34920;SDS011;21128;50.016;20.002;2022-12-22T17:52:32;12.43;;;5.63;;
34920;SDS011;21128;50.016;20.002;2022-12-22T17:55:23;9.23;;;4.67;;
34920;SDS011;21128;50.016;20.002;2022-12-22T17:58:14;12.05;;;5.30;;
34920;SDS011;21128;50.016;20.002;2022-12-22T18:01:01;8.83;;;5.10;;
34920;SDS011;21128;50.016;20.002;2022-12-22T18:03:54;11.20;;;5.30;;
34920;SDS011;21128;50.016;20.002;2022-12-22T18:06:40;8.83;;;4.87;;
34920;SDS011;21128;50.016;20.002;2022-12-22T18:09:27;8.33;;;5.03;;
34920;SDS011;21128;50.016;20.002;2022-12-22T18:12:13;10.27;;;5.23;;
34920;SDS011;21128;50.016;20.002;2022-12-22T18:15:01;8.63;;;5.27;;
34920;SDS011;21128;50.016;20.002;2022-12-22T18:17:47;10.50;;;5.37;;
34920;SDS011;21128;50.016;20.002;2022-12-22T18:20:33;12.57;;;7.97;;